Arviat Airport
CYEK : now visible

Airfield :











YOU CAN JOIN US ON...

 
LOGIN :

Register | Disclaimer

   EN    FR    IT 

 









Legend :    VFR   Marginal VFR   IFR   Intensive IFR   Very Intensive IFR
Visi :
Ceiling :
>= 8 km
>= 3000ft
5 to 8 km
1000 to 3000 ft
1500m to 5 km
500 to 1000 ft
800 to 1500m
200 to 500 ft
< 800m
< 200 ft
Symbols :   Thunderstorms  Fog  Heavy snow  Heavy precipitations  Wind > 20 kt






- Airport Elevation : 32 ft
- IATA code : YEK


CYEK - Arviat

CURRENT METAR :
  • 051800Z 35014KT 15SM IC DRSN SKC M26/M30 A3082 RMK SLP438

EXPIRED METARs :
  • 051700Z 35015KT 15SM IC DRSN SKC M27/M31 A3082 RMK SLP441
  • 051600Z 36013KT 14SM IC DRSN SKC M28/M32 A3083 RMK SLP442

TAF TAF CYEK
Valid from the 05 at 18:00 until the 06 at 06:00 UTC


051738Z 0518/0606 35012KT P6SM SKC
BECMG 0521/0523 05008KT
BECMG 0602/0604 14012KT RMK NXT FCST BY 060000Z
CZEG FIR / North America



MET'MAP, your aeronautical weather chart ! - Copyright ORBIFLY December 2007 - Disclaimer

ORBIFLY MET'MAP TEAM :

Programming & Development : Alexandra Zaïnal
Concept & original design : Baudouin d'Aumeries
Assistance for programming : Marc-Olivier Méhu
Technical & hardware support : Manuel Goepfert

Contact : metmap@orbifly.com




SOURCES & CREDITS :

   NOAA       Earth
Advisory